Time;durP1;ratioP1;P1;durP2;ratioP2;P2;SDS_P1;SDS_P2;PMS_P1;PMS_P2;Temp;Humidity;BMP_temperature;BMP_pressure;BME280_temperature;BME280_humidity;BME280_pressure;Samples;Min_cycle;Max_cycle;Signal;HPM_P1;HPM_P2
2023/01/06 00:00:29;;;;;;;;;;;;;;;14.05;77.13;101362.75;1049675;28;700;-67
2023/01/06 00:01:19;;;;;;;;;;;;;;;14.06;77.33;101366.28;1053630;28;1118;-67
2023/01/06 00:02:09;;;;;;;;;;;;;;;14.07;76.95;101359.97;1052504;28;1172;-67
2023/01/06 00:03:00;;;;;;;;;;;;;;;14.07;77.31;101362.66;1051798;28;626;-67
2023/01/06 00:03:50;;;;;;;;;;;;;;;14.06;77.44;101356.44;1051915;28;1091;-67
2023/01/06 00:04:41;;;;;;;;;;;;;;;14.06;76.99;101356.44;1053584;28;684;-67
2023/01/06 00:05:31;;;;;;;;;;;;;;;14.07;76.98;101350.09;1052449;28;705;-67
2023/01/06 00:06:26;;;;;;;;;;;;;;;14.07;77.27;101358.13;1052428;28;1237;-67
2023/01/06 00:07:16;;;;;;;;;;;;;;;14.08;76.93;101356.31;1050922;28;701;-67
2023/01/06 00:08:07;;;;;;;;;;;;;;;14.08;77.37;101362.53;1050017;28;684;-67
2023/01/06 00:08:57;;;;;;;;;;;;;;;14.08;77.46;101345.59;1049230;28;1382;-67
2023/01/06 00:09:47;;;;;;;;;;;;;;;14.07;77.02;101352.78;1048913;28;1975;-67
2023/01/06 00:10:38;;;;;;;;;;;;;;;14.07;77.03;101347.41;1051964;28;1019;-67
2023/01/06 00:11:28;;;;;;;;;;;;;;;14.07;77.03;101358.13;1052339;28;1556;-66
2023/01/06 00:12:19;;;;;;;;;;;;;;;14.05;76.85;101340.47;1050577;28;1052;-66
2023/01/06 00:13:09;;;;;;;;;;;;;;;14.06;76.97;101348.38;1052469;28;653;-66
2023/01/06 00:14:00;;;;;;;;;;;;;;;14.07;76.95;101350.09;1049046;28;649;-66
2023/01/06 00:14:50;;;;;;;;;;;;;;;14.06;77.41;101347.53;1048809;28;645;-66
2023/01/06 00:15:40;;;;;;;;;;;;;;;14.05;77.41;101352.03;1048341;28;923;-66
2023/01/06 00:16:31;;;;;;;;;;;;;;;14.06;77.05;101353.75;1051412;28;1163;-66
2023/01/06 00:17:21;;;;;;;;;;;;;;;14.05;76.95;101349.34;1048960;28;664;-67
2023/01/06 00:18:12;;;;;;;;;;;;;;;14.06;77.29;101351.06;1050724;28;1147;-66
2023/01/06 00:19:02;;;;;;;;;;;;;;;14.06;77.01;101351.06;1048322;28;625;-67
2023/01/06 00:19:53;;;;;;;;;;;;;;;14.07;77.00;101350.09;1049446;28;1171;-67
2023/01/06 00:20:43;;;;;;;;;;;;;;;14.07;77.02;101349.25;1052332;28;637;-67
2023/01/06 00:21:33;;;;;;;;;;;;;;;14.05;77.24;101352.03;1052230;28;1003;-67
2023/01/06 00:22:24;;;;;;;;;;;;;;;14.07;76.92;101350.09;1045582;28;684;-67
2023/01/06 00:23:14;;;;;;;;;;;;;;;14.08;77.22;101348.28;1046557;28;1072;-67
2023/01/06 00:24:05;;;;;;;;;;;;;;;14.07;77.27;101350.09;1053406;28;677;-67
2023/01/06 00:24:58;;;;;;;;;;;;;;;14.07;77.05;101352.78;1052282;28;945;-67
2023/01/06 00:25:49;;;;;;;;;;;;;;;14.07;77.40;101352.78;1052704;28;755;-66
2023/01/06 00:26:39;;;;;;;;;;;;;;;14.07;77.03;101352.78;1052264;28;1003;-67
2023/01/06 00:27:30;;;;;;;;;;;;;;;14.07;77.02;101352.78;1052206;28;675;-67
2023/01/06 00:28:20;;;;;;;;;;;;;;;14.08;77.53;101357.19;1052494;28;1127;-67
2023/01/06 00:29:11;;;;;;;;;;;;;;;14.08;77.04;101351.81;1053028;28;676;-67
2023/01/06 00:30:01;;;;;;;;;;;;;;;14.07;76.96;101352.78;1048917;28;1894;-67
2023/01/06 00:30:52;;;;;;;;;;;;;;;14.09;77.00;101352.69;1052566;28;633;-67
2023/01/06 00:31:42;;;;;;;;;;;;;;;14.08;76.97;101353.63;1047364;28;1122;-67
2023/01/06 00:32:33;;;;;;;;;;;;;;;14.08;76.92;101351.81;1048567;28;637;-67
2023/01/06 00:33:23;;;;;;;;;;;;;;;14.08;77.41;101354.50;1051132;28;1056;-67
2023/01/06 00:34:13;;;;;;;;;;;;;;;14.08;77.22;101357.19;1052280;28;1466;-67
2023/01/06 00:35:04;;;;;;;;;;;;;;;14.09;77.13;101355.34;1052190;28;669;-67
2023/01/06 00:35:54;;;;;;;;;;;;;;;14.08;76.96;101348.28;1052739;28;1174;-67
2023/01/06 00:36:45;;;;;;;;;;;;;;;14.07;76.80;101355.47;1052126;28;787;-67
2023/01/06 00:37:35;;;;;;;;;;;;;;;14.07;77.19;101354.59;1052154;28;685;-67
2023/01/06 00:38:26;;;;;;;;;;;;;;;14.08;77.01;101353.63;1052502;28;645;-67
2023/01/06 00:39:16;;;;;;;;;;;;;;;14.08;77.44;101357.19;1052126;28;1154;-67
2023/01/06 00:40:06;;;;;;;;;;;;;;;14.09;77.00;101350.00;1053163;28;712;-67
2023/01/06 00:40:57;;;;;;;;;;;;;;;14.08;76.88;101348.28;1050450;28;710;-67
2023/01/06 00:42:02;;;;;;;;;;;;;;;14.08;76.93;101351.81;1049355;28;664;-67
2023/01/06 00:42:53;;;;;;;;;;;;;;;14.06;77.09;101359.09;1050595;28;1021;-67
2023/01/06 00:43:43;;;;;;;;;;;;;;;14.07;77.41;101354.59;1052400;28;668;-67
2023/01/06 00:44:34;;;;;;;;;;;;;;;14.06;77.08;101358.25;1050639;28;1133;-67
2023/01/06 00:45:24;;;;;;;;;;;;;;;14.06;76.99;101356.44;1052127;28;1185;-67
2023/01/06 00:46:15;;;;;;;;;;;;;;;14.06;76.97;101359.09;1048822;28;672;-67
2023/01/06 00:47:05;;;;;;;;;;;;;;;14.04;76.90;101371.75;1051652;28;1226;-66
2023/01/06 00:47:55;;;;;;;;;;;;;;;14.07;77.53;101370.69;1048258;28;633;-67
2023/01/06 00:48:46;;;;;;;;;;;;;;;14.07;76.94;101358.13;1051502;28;638;-67
2023/01/06 00:49:36;;;;;;;;;;;;;;;14.07;77.69;101352.78;1052226;28;1174;-67
2023/01/06 00:50:27;;;;;;;;;;;;;;;14.06;77.08;101358.25;1052038;28;689;-67
2023/01/06 00:51:17;;;;;;;;;;;;;;;14.05;77.28;101361.91;1049235;28;720;-67
2023/01/06 00:52:08;;;;;;;;;;;;;;;14.04;76.98;101353.00;1050523;28;944;-67
2023/01/06 00:52:58;;;;;;;;;;;;;;;14.05;77.45;101346.66;1048665;28;697;-67
2023/01/06 00:53:48;;;;;;;;;;;;;;;14.05;77.29;101357.38;1050824;28;705;-67
2023/01/06 00:54:39;;;;;;;;;;;;;;;14.06;77.25;101360.94;1051842;28;1043;-67
2023/01/06 00:55:29;;;;;;;;;;;;;;;14.04;77.01;101350.31;1052802;28;972;-67
2023/01/06 00:56:20;;;;;;;;;;;;;;;14.04;77.47;101349.47;1052013;28;700;-67
2023/01/06 00:57:10;;;;;;;;;;;;;;;14.03;77.08;101353.97;1052100;28;693;-67
2023/01/06 00:58:01;;;;;;;;;;;;;;;14.02;77.06;101354.06;1052383;28;645;-67
2023/01/06 00:58:51;;;;;;;;;;;;;;;14.02;77.40;101357.59;1048872;28;697;-67
2023/01/06 00:59:41;;;;;;;;;;;;;;;14.02;77.40;101354.06;1048216;28;1186;-67
2023/01/06 01:00:32;;;;;;;;;;;;;;;14.02;77.03;101356.75;1048636;28;610;-67
2023/01/06 01:01:22;;;;;;;;;;;;;;;14.00;77.62;101356.00;1050521;28;1159;-67
2023/01/06 01:02:13;;;;;;;;;;;;;;;13.99;77.59;101363.19;1050250;28;1097;-67
2023/01/06 01:03:03;;;;;;;;;;;;;;;14.00;77.33;101351.50;1051494;28;1180;-67
2023/01/06 01:03:54;;;;;;;;;;;;;;;13.99;77.13;101352.47;1049251;28;696;-67
2023/01/06 01:04:44;;;;;;;;;;;;;;;14.01;77.17;101361.25;1049983;28;1407;-66
2023/01/06 01:05:34;;;;;;;;;;;;;;;14.00;76.90;101348.81;1049273;28;704;-67
2023/01/06 01:06:25;;;;;;;;;;;;;;;14.01;76.81;101355.88;1051373;28;1188;-67
2023/01/06 01:07:15;;;;;;;;;;;;;;;14.01;76.95;101345.16;1052383;28;669;-67
2023/01/06 01:08:06;;;;;;;;;;;;;;;14.00;77.01;101348.81;1053132;28;1205;-68
2023/01/06 01:08:56;;;;;;;;;;;;;;;14.00;77.27;101348.81;1052770;28;775;-67
2023/01/06 01:09:47;;;;;;;;;;;;;;;14.00;76.90;101348.81;1052312;28;689;-67
2023/01/06 01:10:37;;;;;;;;;;;;;;;14.01;77.20;101345.16;1052039;28;1088;-67
2023/01/06 01:12:37;;;;;;;;;;;;;;;14.02;77.17;101338.84;1052693;28;1217;-67
2023/01/06 01:13:27;;;;;;;;;;;;;;;14.02;77.37;101341.53;1049496;28;1103;-67
2023/01/06 01:14:18;;;;;;;;;;;;;;;14.00;77.38;101348.81;1052412;28;801;-67
2023/01/06 01:15:08;;;;;;;;;;;;;;;14.03;77.38;101337.03;1050679;28;1115;-67
2023/01/06 01:15:58;;;;;;;;;;;;;;;14.03;76.88;101342.38;1052238;28;1314;-67
2023/01/06 01:16:49;;;;;;;;;;;;;;;14.03;77.45;101332.53;1048540;28;637;-67
2023/01/06 01:17:39;;;;;;;;;;;;;;;14.04;77.37;101336.06;1047556;28;1001;-67
2023/01/06 01:18:30;;;;;;;;;;;;;;;14.04;76.90;101336.91;1044078;28;633;-67
2023/01/06 01:19:20;;;;;;;;;;;;;;;14.04;77.37;101334.25;1048062;28;1258;-67
2023/01/06 01:20:11;;;;;;;;;;;;;;;14.03;77.13;101323.63;1047578;28;677;-68
2023/01/06 01:21:01;;;;;;;;;;;;;;;14.04;77.57;101326.19;1052552;28;646;-68
2023/01/06 01:21:52;;;;;;;;;;;;;;;14.05;76.94;101335.94;1048740;28;1226;-68
2023/01/06 01:22:42;;;;;;;;;;;;;;;14.05;77.38;101329.72;1048225;28;872;-67
2023/01/06 01:23:32;;;;;;;;;;;;;;;14.04;77.18;101331.56;1052681;28;656;-68
2023/01/06 01:24:23;;;;;;;;;;;;;;;14.05;77.32;101337.78;1051993;28;744;-68
2023/01/06 01:25:13;;;;;;;;;;;;;;;14.05;77.59;101335.94;1052090;28;677;-67
2023/01/06 01:26:04;;;;;;;;;;;;;;;14.05;77.27;101330.59;1052977;28;657;-67
2023/01/06 01:26:54;;;;;;;;;;;;;;;14.05;77.41;101330.59;1052137;28;690;-67
2023/01/06 01:27:45;;;;;;;;;;;;;;;14.06;77.42;101336.81;1049077;28;696;-67
2023/01/06 01:28:35;;;;;;;;;;;;;;;14.05;77.28;101333.28;1048454;28;744;-67
2023/01/06 01:29:25;;;;;;;;;;;;;;;14.03;77.17;101332.53;1048000;28;724;-68
2023/01/06 01:30:16;;;;;;;;;;;;;;;14.03;77.21;101332.53;1050287;28;1902;-67
2023/01/06 01:31:06;;;;;;;;;;;;;;;14.02;77.16;101330.81;1048119;28;654;-67
2023/01/06 01:31:57;;;;;;;;;;;;;;;14.02;77.11;101329.94;1051186;28;1222;-68
2023/01/06 01:32:47;;;;;;;;;;;;;;;14.01;77.11;101326.41;1045169;28;665;-67
2023/01/06 01:33:38;;;;;;;;;;;;;;;14.01;77.08;101326.41;1045628;28;1159;-67
2023/01/06 01:34:28;;;;;;;;;;;;;;;14.04;77.25;101328.88;1052685;28;701;-67
2023/01/06 01:35:18;;;;;;;;;;;;;;;14.04;77.00;101322.66;1048575;28;1187;-67
2023/01/06 01:36:09;;;;;;;;;;;;;;;14.03;77.04;101324.47;1045143;28;728;-67
2023/01/06 01:36:59;;;;;;;;;;;;;;;14.03;77.44;101321.81;1049709;28;721;-67
2023/01/06 01:37:50;;;;;;;;;;;;;;;14.02;77.20;101320.09;1053004;28;1209;-67
2023/01/06 01:38:40;;;;;;;;;;;;;;;14.03;77.52;101327.16;1052072;28;702;-67
2023/01/06 01:39:31;;;;;;;;;;;;;;;14.04;77.20;101322.66;1052192;28;677;-67
2023/01/06 01:40:21;;;;;;;;;;;;;;;14.02;77.38;101328.13;1052541;28;781;-67
2023/01/06 01:41:11;;;;;;;;;;;;;;;14.03;77.15;101329.84;1049174;28;708;-67
2023/01/06 01:42:02;;;;;;;;;;;;;;;14.03;76.96;101327.16;1051019;28;740;-67
2023/01/06 01:42:52;;;;;;;;;;;;;;;14.05;77.51;101327.91;1048842;28;660;-67
2023/01/06 01:43:43;;;;;;;;;;;;;;;14.05;77.14;101321.69;1047907;28;1555;-67
2023/01/06 01:44:33;;;;;;;;;;;;;;;14.06;77.08;101326.94;1048447;28;691;-67
2023/01/06 01:45:24;;;;;;;;;;;;;;;14.06;77.31;101313.56;1049630;28;684;-67
2023/01/06 01:46:14;;;;;;;;;;;;;;;14.07;76.83;101319.75;1050470;28;968;-67
2023/01/06 01:47:05;;;;;;;;;;;;;;;14.06;76.94;101318.06;1048579;28;654;-67
2023/01/06 01:47:55;;;;;;;;;;;;;;;14.06;76.73;101318.06;1048332;28;646;-66
2023/01/06 01:48:46;;;;;;;;;;;;;;;14.04;77.18;101315.47;1051284;28;1103;-67
2023/01/06 01:49:36;;;;;;;;;;;;;;;14.04;76.91;101312.81;1051989;28;618;-67
2023/01/06 01:50:26;;;;;;;;;;;;;;;14.03;77.05;101320.94;1048492;28;697;-66
2023/01/06 01:51:17;;;;;;;;;;;;;;;14.04;76.99;101310.13;1048337;28;689;-67
2023/01/06 01:52:07;;;;;;;;;;;;;;;14.04;76.81;101323.53;1051492;28;673;-67
2023/01/06 01:52:58;;;;;;;;;;;;;;;14.05;77.36;101314.50;1052459;28;693;-67
2023/01/06 01:53:48;;;;;;;;;;;;;;;14.04;77.23;101309.25;1048378;28;1141;-67
2023/01/06 01:54:39;;;;;;;;;;;;;;;14.05;77.25;101317.19;1048883;28;1159;-67
2023/01/06 01:55:29;;;;;;;;;;;;;;;14.05;77.13;101310.97;1052707;28;609;-66
2023/01/06 01:56:20;;;;;;;;;;;;;;;14.04;77.35;101311.94;1051632;28;749;-67
2023/01/06 01:57:10;;;;;;;;;;;;;;;14.06;77.18;101312.69;1049036;28;664;-67
2023/01/06 01:58:01;;;;;;;;;;;;;;;14.04;77.26;101307.44;1051486;28;917;-67
2023/01/06 01:58:51;;;;;;;;;;;;;;;14.05;77.34;101305.63;1051938;28;708;-67
2023/01/06 01:59:42;;;;;;;;;;;;;;;14.04;77.49;101312.81;1052048;28;961;-67
2023/01/06 02:00:32;;;;;;;;;;;;;;;14.04;77.34;101307.44;1051455;28;624;-67
2023/01/06 02:01:23;;;;;;;;;;;;;;;14.05;77.11;101298.44;1052220;28;1051;-67
2023/01/06 02:02:13;;;;;;;;;;;;;;;14.04;77.25;101302.06;1052372;28;1160;-67
2023/01/06 02:03:03;;;;;;;;;;;;;;;14.06;76.74;101305.50;1048983;28;735;-67
2023/01/06 02:03:54;;;;;;;;;;;;;;;14.04;76.97;101301.22;1050905;28;1166;-67
2023/01/06 02:04:44;;;;;;;;;;;;;;;14.03;77.30;101299.50;1048390;28;636;-67
2023/01/06 02:05:35;;;;;;;;;;;;;;;14.03;76.89;101300.38;1048614;28;712;-67
2023/01/06 02:06:25;;;;;;;;;;;;;;;14.02;77.02;101301.31;1052495;28;1320;-67
2023/01/06 02:07:16;;;;;;;;;;;;;;;14.02;77.08;101304.00;1052575;28;1222;-66
2023/01/06 02:08:07;;;;;;;;;;;;;;;14.02;77.41;101287.94;1051350;28;1465;-67
2023/01/06 02:08:57;;;;;;;;;;;;;;;14.02;76.95;101293.28;1051991;28;726;-67
2023/01/06 02:09:48;;;;;;;;;;;;;;;14.03;77.06;101292.31;1052096;28;1158;-67
2023/01/06 02:10:38;;;;;;;;;;;;;;;14.01;76.88;101286.22;1051904;28;709;-67
2023/01/06 02:11:29;;;;;;;;;;;;;;;14.02;77.45;101282.56;1052086;28;661;-67
2023/01/06 02:12:19;;;;;;;;;;;;;;;14.01;77.37;101278.19;1052397;28;753;-67
2023/01/06 02:13:09;;;;;;;;;;;;;;;14.02;76.94;101276.34;1052108;28;668;-67
2023/01/06 02:14:00;;;;;;;;;;;;;;;14.02;77.11;101281.72;1052473;28;759;-67
2023/01/06 02:14:50;;;;;;;;;;;;;;;14.01;77.52;101283.53;1051312;28;1166;-67
2023/01/06 02:15:41;;;;;;;;;;;;;;;14.01;76.94;101278.19;1051945;28;1019;-67
2023/01/06 02:16:31;;;;;;;;;;;;;;;14.02;77.21;101287.06;1051654;28;1458;-67
2023/01/06 02:17:22;;;;;;;;;;;;;;;14.01;77.49;101280.84;1052592;28;786;-66
2023/01/06 02:18:12;;;;;;;;;;;;;;;14.02;77.07;101287.94;1051854;28;729;-67
2023/01/06 02:19:02;;;;;;;;;;;;;;;14.01;77.24;101285.34;1052550;28;656;-67
2023/01/06 02:19:53;;;;;;;;;;;;;;;13.99;76.88;101293.50;1052363;28;940;-67
2023/01/06 02:20:43;;;;;;;;;;;;;;;13.99;77.45;101285.47;1050157;28;1150;-67
2023/01/06 02:21:34;;;;;;;;;;;;;;;13.99;77.75;101293.50;1052112;28;712;-67
2023/01/06 02:22:24;;;;;;;;;;;;;;;14.00;77.10;101289.84;1051878;28;728;-67
2023/01/06 02:23:15;;;;;;;;;;;;;;;14.00;76.92;101289.84;1052086;28;653;-67
2023/01/06 02:24:05;;;;;;;;;;;;;;;14.02;77.05;101290.59;1052115;28;1241;-67
2023/01/06 02:24:55;;;;;;;;;;;;;;;14.01;77.04;101286.22;1052465;28;698;-67
2023/01/06 02:25:46;;;;;;;;;;;;;;;14.00;77.45;101273.78;1051519;28;1131;-67
2023/01/06 02:26:36;;;;;;;;;;;;;;;14.01;76.86;101274.63;1051735;28;1497;-67
2023/01/06 02:27:27;;;;;;;;;;;;;;;14.01;77.39;101275.50;1052070;28;626;-67
2023/01/06 02:28:17;;;;;;;;;;;;;;;13.99;77.10;101272.06;1051803;28;724;-67
2023/01/06 02:29:07;;;;;;;;;;;;;;;14.00;77.00;101273.78;1051972;28;1202;-67
2023/01/06 02:29:58;;;;;;;;;;;;;;;14.01;76.81;101263.91;1051488;28;1970;-67
2023/01/06 02:30:48;;;;;;;;;;;;;;;14.00;76.94;101264.88;1051773;28;1170;-67
2023/01/06 02:31:39;;;;;;;;;;;;;;;14.00;77.18;101257.69;1052499;28;711;-67
2023/01/06 02:32:29;;;;;;;;;;;;;;;13.99;76.89;101261.34;1052294;28;1193;-67
2023/01/06 02:33:20;;;;;;;;;;;;;;;13.98;77.61;101262.31;1052020;28;690;-67
2023/01/06 02:34:10;;;;;;;;;;;;;;;13.98;77.41;101259.63;1052185;28;1233;-67
2023/01/06 02:35:00;;;;;;;;;;;;;;;13.99;77.33;101261.34;1051983;28;840;-67
2023/01/06 02:35:51;;;;;;;;;;;;;;;13.99;77.48;101263.16;1052999;28;1190;-67
2023/01/06 02:36:43;;;;;;;;;;;;;;;13.98;77.21;101256.97;1051594;28;1502;-67
2023/01/06 02:37:34;;;;;;;;;;;;;;;13.97;77.17;101247.25;1052951;28;709;-67
2023/01/06 02:38:25;;;;;;;;;;;;;;;13.99;77.19;101247.94;1047621;28;716;-67
2023/01/06 02:39:16;;;;;;;;;;;;;;;13.97;77.22;101252.59;1048273;28;790;-67
2023/01/06 02:40:06;;;;;;;;;;;;;;;13.98;77.43;101256.97;1052334;28;1246;-67
2023/01/06 02:40:57;;;;;;;;;;;;;;;13.98;77.29;101237.34;1052005;28;1174;-67
2023/01/06 02:41:47;;;;;;;;;;;;;;;13.97;77.43;101244.56;1048966;28;626;-67
2023/01/06 02:42:38;;;;;;;;;;;;;;;13.99;77.33;101236.38;1050586;28;1158;-67
2023/01/06 02:43:28;;;;;;;;;;;;;;;13.97;76.93;101235.66;1052439;28;676;-67
2023/01/06 02:44:19;;;;;;;;;;;;;;;13.96;77.29;101231.28;1049853;28;630;-66
2023/01/06 02:45:09;;;;;;;;;;;;;;;13.97;77.35;101236.53;1052007;28;633;-66
2023/01/06 02:46:00;;;;;;;;;;;;;;;13.98;76.95;101238.19;1051949;28;1210;-66
2023/01/06 02:46:50;;;;;;;;;;;;;;;13.97;77.15;101233.84;1050951;28;1413;-66
2023/01/06 02:47:41;;;;;;;;;;;;;;;13.97;76.91;101235.66;1051870;28;1218;-67
2023/01/06 02:48:31;;;;;;;;;;;;;;;13.98;77.12;101237.34;1051414;28;1470;-66
2023/01/06 02:49:21;;;;;;;;;;;;;;;13.97;76.96;101233.84;1051966;28;710;-67
2023/01/06 02:50:12;;;;;;;;;;;;;;;13.99;77.15;101222.97;1051423;28;1898;-66
2023/01/06 02:51:02;;;;;;;;;;;;;;;13.97;77.35;101228.47;1047859;28;2226;-66
2023/01/06 02:51:53;;;;;;;;;;;;;;;13.98;77.05;101226.63;1048415;28;728;-66
2023/01/06 02:52:43;;;;;;;;;;;;;;;13.98;77.28;101232.84;1048252;28;748;-66
2023/01/06 02:53:34;;;;;;;;;;;;;;;13.97;77.03;101220.44;1048362;28;666;-66
2023/01/06 02:54:24;;;;;;;;;;;;;;;13.96;77.15;101218.72;1048030;28;1077;-66
2023/01/06 02:55:14;;;;;;;;;;;;;;;13.96;77.25;101225.91;1047688;28;684;-66
2023/01/06 02:56:05;;;;;;;;;;;;;;;13.96;77.04;101224.09;1048903;28;1387;-66
2023/01/06 02:56:55;;;;;;;;;;;;;;;13.95;77.49;101211.66;1052539;28;669;-67
2023/01/06 02:57:46;;;;;;;;;;;;;;;13.98;77.07;101207.88;1049366;28;676;-66
2023/01/06 02:58:36;;;;;;;;;;;;;;;13.98;77.30;101213.22;1048484;28;1131;-66
2023/01/06 02:59:26;;;;;;;;;;;;;;;13.98;77.18;101215.91;1048911;28;653;-66
2023/01/06 03:00:17;;;;;;;;;;;;;;;13.97;77.22;101211.53;1049986;28;867;-67
2023/01/06 03:01:07;;;;;;;;;;;;;;;13.98;77.29;101213.22;1051907;28;677;-67
2023/01/06 03:01:58;;;;;;;;;;;;;;;13.97;77.27;101211.53;1051635;28;1673;-66
2023/01/06 03:02:48;;;;;;;;;;;;;;;13.96;77.48;101207.16;1051259;28;634;-66
2023/01/06 03:03:39;;;;;;;;;;;;;;;13.96;77.37;101202.66;1052363;28;1159;-66
2023/01/06 03:04:29;;;;;;;;;;;;;;;13.96;77.37;101207.16;1048533;28;723;-66
2023/01/06 03:05:20;;;;;;;;;;;;;;;13.97;77.35;101204.38;1048029;28;645;-66
2023/01/06 03:06:10;;;;;;;;;;;;;;;13.98;77.41;101198.00;1051925;28;1462;-66
2023/01/06 03:07:02;;;;;;;;;;;;;;;13.99;77.24;101197.03;1052672;28;664;-66
2023/01/06 03:07:52;;;;;;;;;;;;;;;13.98;77.11;101200.69;1052253;28;1146;-66
2023/01/06 03:08:43;;;;;;;;;;;;;;;13.98;77.30;101189.97;1052799;28;841;-66
2023/01/06 03:09:33;;;;;;;;;;;;;;;13.99;77.09;101189.00;1049643;28;790;-66
2023/01/06 03:10:24;;;;;;;;;;;;;;;14.00;77.09;101185.34;1045225;28;680;-66
2023/01/06 03:11:14;;;;;;;;;;;;;;;14.00;77.04;101187.19;1047339;28;1151;-66
2023/01/06 03:12:05;;;;;;;;;;;;;;;13.98;77.28;101173.03;1049156;28;716;-67
2023/01/06 03:12:55;;;;;;;;;;;;;;;13.99;76.84;101172.06;1050689;28;1229;-66
2023/01/06 03:13:45;;;;;;;;;;;;;;;13.99;76.95;101172.94;1049432;28;1079;-66
2023/01/06 03:14:36;;;;;;;;;;;;;;;13.98;77.54;101173.03;1052931;28;649;-66
2023/01/06 03:15:26;;;;;;;;;;;;;;;13.98;77.37;101173.03;1049066;28;736;-67
2023/01/06 03:16:17;;;;;;;;;;;;;;;13.98;77.28;101165.00;1049026;28;657;-67
2023/01/06 03:17:07;;;;;;;;;;;;;;;13.96;76.93;101162.47;1052412;28;1053;-67
2023/01/06 03:17:58;;;;;;;;;;;;;;;13.97;77.04;101166.84;1052769;28;690;-67
2023/01/06 03:18:48;;;;;;;;;;;;;;;13.97;77.55;101166.00;1052535;28;645;-67
2023/01/06 03:19:39;;;;;;;;;;;;;;;13.97;76.91;101172.22;1053116;28;937;-67
2023/01/06 03:20:29;;;;;;;;;;;;;;;13.95;77.30;101168.78;1053055;28;684;-67
2023/01/06 03:21:19;;;;;;;;;;;;;;;13.97;77.08;101166.00;1052479;28;1324;-67
2023/01/06 03:22:10;;;;;;;;;;;;;;;13.96;77.64;101169.66;1052796;28;677;-67
2023/01/06 03:23:00;;;;;;;;;;;;;;;13.96;77.69;101173.19;1052472;28;1031;-67
2023/01/06 03:23:51;;;;;;;;;;;;;;;13.97;77.32;101166.84;1052819;28;673;-67
2023/01/06 03:24:41;;;;;;;;;;;;;;;13.98;77.58;101171.22;1050234;28;1075;-66
2023/01/06 03:25:31;;;;;;;;;;;;;;;13.97;77.35;101169.53;1052699;28;685;-66
2023/01/06 03:26:22;;;;;;;;;;;;;;;13.99;77.72;101170.25;1051171;28;1036;-66
2023/01/06 03:27:12;;;;;;;;;;;;;;;13.98;77.49;101159.63;1052366;28;653;-67
2023/01/06 03:28:03;;;;;;;;;;;;;;;13.98;77.42;101165.84;1049112;28;642;-66
2023/01/06 03:28:53;;;;;;;;;;;;;;;13.97;77.45;101161.50;1048902;28;638;-67
2023/01/06 03:29:44;;;;;;;;;;;;;;;13.97;77.04;101166.00;1049606;28;778;-67
2023/01/06 03:30:34;;;;;;;;;;;;;;;13.98;77.50;101162.31;1051162;28;1147;-67
2023/01/06 03:31:25;;;;;;;;;;;;;;;13.95;77.91;101167.94;1049029;28;634;-67
2023/01/06 03:32:15;;;;;;;;;;;;;;;13.95;77.49;101162.56;1050446;28;1151;-67
2023/01/06 03:33:05;;;;;;;;;;;;;;;13.95;77.32;101165.25;1048969;28;609;-67
2023/01/06 03:33:56;;;;;;;;;;;;;;;13.95;77.81;101166.09;1052460;28;1296;-67
2023/01/06 03:34:46;;;;;;;;;;;;;;;13.95;77.25;101160.75;1052502;28;622;-66
2023/01/06 03:35:37;;;;;;;;;;;;;;;13.95;77.45;101160.75;1052418;28;1498;-67
2023/01/06 03:36:27;;;;;;;;;;;;;;;13.96;77.46;101159.78;1052497;28;712;-66
2023/01/06 03:37:18;;;;;;;;;;;;;;;13.95;77.52;101160.75;1052697;28;732;-67
2023/01/06 03:38:08;;;;;;;;;;;;;;;13.97;77.37;101166.00;1052374;28;618;-66
2023/01/06 03:38:58;;;;;;;;;;;;;;;13.97;77.52;101160.63;1053052;28;702;-66
2023/01/06 03:39:49;;;;;;;;;;;;;;;13.98;77.11;101157.81;1052806;28;693;-66
2023/01/06 03:40:39;;;;;;;;;;;;;;;13.98;77.21;101157.81;1051980;28;699;-67
2023/01/06 03:43:10;;;;;;;;;;;;;;;13.97;77.55;101158.81;1052581;28;1051;-67
2023/01/06 03:43:49;;;;;;;;;;;;;;;13.98;77.38;101146.25;1051649;28;716;-67
2023/01/06 03:44:40;;;;;;;;;;;;;;;13.98;77.00;101154.28;1052776;28;641;-67
2023/01/06 03:45:34;;;;;;;;;;;;;;;13.97;77.06;101145.41;1052599;28;1323;-66
2023/01/06 03:46:24;;;;;;;;;;;;;;;13.98;77.35;101140.88;1053013;28;684;-67
2023/01/06 03:47:15;;;;;;;;;;;;;;;13.97;77.32;101142.75;1053619;28;943;-67
2023/01/06 03:48:05;;;;;;;;;;;;;;;13.96;77.34;101142.84;1053009;28;778;-66
2023/01/06 03:48:55;;;;;;;;;;;;;;;13.97;77.17;101142.75;1048966;28;645;-66
2023/01/06 03:49:46;;;;;;;;;;;;;;;13.97;76.99;101142.75;1050892;28;1198;-66
2023/01/06 03:50:36;;;;;;;;;;;;;;;13.97;77.09;101132.03;1048913;28;590;-66
2023/01/06 03:51:27;;;;;;;;;;;;;;;13.98;77.41;101131.03;1048938;28;693;-65
2023/01/06 03:52:18;;;;;;;;;;;;;;;13.97;77.11;101123.97;1050179;28;1004;-66
2023/01/06 03:53:08;;;;;;;;;;;;;;;13.97;76.96;101121.31;1052247;28;1138;-66
2023/01/06 03:53:58;;;;;;;;;;;;;;;13.97;77.37;101123.13;1049463;28;683;-66
2023/01/06 03:54:49;;;;;;;;;;;;;;;13.96;77.47;101124.94;1052576;28;1187;-66
2023/01/06 03:55:39;;;;;;;;;;;;;;;13.96;76.99;101138.34;1052386;28;1400;-66
2023/01/06 03:56:30;;;;;;;;;;;;;;;13.98;76.97;101130.16;1052467;28;1154;-66
2023/01/06 03:57:20;;;;;;;;;;;;;;;13.97;76.98;101133.84;1052218;28;1533;-66
2023/01/06 03:58:11;;;;;;;;;;;;;;;13.98;77.33;101127.50;1052510;28;700;-66
2023/01/06 03:59:01;;;;;;;;;;;;;;;13.97;77.43;101128.50;1052136;28;1131;-67
2023/01/06 03:59:51;;;;;;;;;;;;;;;13.96;77.29;101130.31;1052266;28;1020;-66
2023/01/06 04:00:42;;;;;;;;;;;;;;;13.98;77.28;101130.16;1052746;28;657;-66
2023/01/06 04:01:32;;;;;;;;;;;;;;;13.96;77.00;101127.63;1052209;28;1012;-66
2023/01/06 04:02:23;;;;;;;;;;;;;;;13.95;77.22;101128.59;1053025;28;1196;-66
2023/01/06 04:03:13;;;;;;;;;;;;;;;13.95;77.09;101131.28;1052278;28;1138;-67
2023/01/06 04:04:04;;;;;;;;;;;;;;;13.96;77.60;101127.63;1052353;28;1119;-66
2023/01/06 04:04:54;;;;;;;;;;;;;;;13.94;77.55;101137.59;1052235;28;825;-66
2023/01/06 04:05:45;;;;;;;;;;;;;;;13.96;76.94;101124.09;1051532;28;977;-66
2023/01/06 04:06:35;;;;;;;;;;;;;;;13.94;77.57;101121.53;1045511;28;696;-66
2023/01/06 04:07:25;;;;;;;;;;;;;;;13.94;76.99;101126.88;1048368;28;1085;-66
2023/01/06 04:08:16;;;;;;;;;;;;;;;13.94;77.46;101126.03;1048923;28;1095;-66
2023/01/06 04:09:06;;;;;;;;;;;;;;;13.94;77.49;101118.84;1052352;28;657;-66
2023/01/06 04:09:57;;;;;;;;;;;;;;;13.94;76.88;101116.16;1052440;28;1906;-66
2023/01/06 04:10:47;;;;;;;;;;;;;;;13.95;76.95;101108.97;1051580;28;1131;-67
2023/01/06 04:12:47;;;;;;;;;;;;;;;13.93;77.34;101110.91;1051533;28;1027;-67
2023/01/06 04:13:37;;;;;;;;;;;;;;;13.94;77.28;101109.94;1052302;28;634;-67
2023/01/06 04:14:28;;;;;;;;;;;;;;;13.93;77.47;101113.59;1052118;28;1083;-66
2023/01/06 04:15:18;;;;;;;;;;;;;;;13.93;77.16;101117.13;1052651;28;791;-67
2023/01/06 04:16:08;;;;;;;;;;;;;;;13.93;77.41;101117.13;1048815;28;668;-67
2023/01/06 04:17:00;;;;;;;;;;;;;;;13.93;77.24;101101.06;1052562;28;1113;-67
2023/01/06 04:17:50;;;;;;;;;;;;;;;13.94;77.17;101110.81;1051379;28;1017;-66
2023/01/06 04:18:41;;;;;;;;;;;;;;;13.94;77.62;101116.16;1052355;28;1238;-66
2023/01/06 04:19:31;;;;;;;;;;;;;;;13.95;77.46;101103.63;1051080;28;1448;-66
2023/01/06 04:20:22;;;;;;;;;;;;;;;13.94;77.29;101100.09;1052293;28;1135;-66
2023/01/06 04:21:12;;;;;;;;;;;;;;;13.95;77.48;101104.47;1048919;28;680;-66
2023/01/06 04:22:02;;;;;;;;;;;;;;;13.96;77.40;101105.34;1048769;28;714;-66
2023/01/06 04:22:53;;;;;;;;;;;;;;;13.96;76.77;101108.88;1052513;28;661;-66
2023/01/06 04:23:43;;;;;;;;;;;;;;;13.94;77.57;101105.44;1052802;28;952;-66
2023/01/06 04:24:34;;;;;;;;;;;;;;;13.95;77.46;101115.19;1052581;28;653;-66
2023/01/06 04:25:24;;;;;;;;;;;;;;;13.97;77.08;101112.41;1051599;28;1143;-66
2023/01/06 04:26:15;;;;;;;;;;;;;;;13.97;77.28;101104.38;1052419;28;657;-67
2023/01/06 04:27:05;;;;;;;;;;;;;;;13.95;77.60;101106.31;1051713;28;933;-66
2023/01/06 04:27:56;;;;;;;;;;;;;;;13.95;77.41;101103.63;1052416;28;752;-67
2023/01/06 04:28:46;;;;;;;;;;;;;;;13.94;76.97;101096.56;1052572;28;749;-66